sensor_id;sensor_type;location;lat;lon;timestamp;P1;durP1;ratioP1;P2;durP2;ratioP2
15406;SDS011;7802;51.568;6.364;2022-11-15T00:02:02;14.00;;;10.83;;
15406;SDS011;7802;51.568;6.364;2022-11-15T00:05:09;12.03;;;10.73;;
15406;SDS011;7802;51.568;6.364;2022-11-15T00:08:14;12.40;;;11.10;;
15406;SDS011;7802;51.568;6.364;2022-11-15T00:11:20;13.20;;;10.33;;
15406;SDS011;7802;51.568;6.364;2022-11-15T00:14:26;12.37;;;10.70;;
15406;SDS011;7802;51.568;6.364;2022-11-15T00:17:31;13.13;;;10.83;;
15406;SDS011;7802;51.568;6.364;2022-11-15T00:20:37;12.60;;;10.90;;
15406;SDS011;7802;51.568;6.364;2022-11-15T00:23:42;12.80;;;11.03;;
15406;SDS011;7802;51.568;6.364;2022-11-15T00:26:48;12.97;;;10.63;;
15406;SDS011;7802;51.568;6.364;2022-11-15T00:29:54;12.33;;;10.63;;
15406;SDS011;7802;51.568;6.364;2022-11-15T00:33:01;13.40;;;11.13;;
15406;SDS011;7802;51.568;6.364;2022-11-15T00:36:07;11.30;;;10.07;;
15406;SDS011;7802;51.568;6.364;2022-11-15T00:39:14;11.73;;;10.53;;
15406;SDS011;7802;51.568;6.364;2022-11-15T00:42:19;14.43;;;10.87;;
15406;SDS011;7802;51.568;6.364;2022-11-15T00:45:26;12.63;;;10.90;;
15406;SDS011;7802;51.568;6.364;2022-11-15T00:48:31;12.17;;;10.87;;
15406;SDS011;7802;51.568;6.364;2022-11-15T00:51:37;12.60;;;10.73;;
15406;SDS011;7802;51.568;6.364;2022-11-15T00:54:42;12.13;;;10.83;;
15406;SDS011;7802;51.568;6.364;2022-11-15T00:57:48;10.97;;;9.80;;
15406;SDS011;7802;51.568;6.364;2022-11-15T01:00:54;15.77;;;10.60;;
15406;SDS011;7802;51.568;6.364;2022-11-15T01:03:59;13.10;;;10.17;;
15406;SDS011;7802;51.568;6.364;2022-11-15T01:07:06;13.30;;;10.63;;
15406;SDS011;7802;51.568;6.364;2022-11-15T01:10:11;15.60;;;10.77;;
15406;SDS011;7802;51.568;6.364;2022-11-15T01:13:17;11.67;;;10.47;;
15406;SDS011;7802;51.568;6.364;2022-11-15T01:16:23;13.10;;;11.20;;
15406;SDS011;7802;51.568;6.364;2022-11-15T01:19:29;15.00;;;10.50;;
15406;SDS011;7802;51.568;6.364;2022-11-15T01:22:34;12.90;;;10.70;;
15406;SDS011;7802;51.568;6.364;2022-11-15T01:25:40;13.13;;;10.93;;
15406;SDS011;7802;51.568;6.364;2022-11-15T01:28:45;12.70;;;11.40;;
15406;SDS011;7802;51.568;6.364;2022-11-15T01:31:52;14.70;;;11.63;;
15406;SDS011;7802;51.568;6.364;2022-11-15T01:34:58;14.53;;;11.17;;
15406;SDS011;7802;51.568;6.364;2022-11-15T01:38:03;11.30;;;10.10;;
15406;SDS011;7802;51.568;6.364;2022-11-15T01:41:13;13.07;;;10.97;;
15406;SDS011;7802;51.568;6.364;2022-11-15T01:44:38;13.80;;;10.80;;
15406;SDS011;7802;51.568;6.364;2022-11-15T01:47:50;12.93;;;10.73;;
15406;SDS011;7802;51.568;6.364;2022-11-15T01:50:57;14.63;;;10.30;;
15406;SDS011;7802;51.568;6.364;2022-11-15T01:54:05;12.43;;;11.03;;
15406;SDS011;7802;51.568;6.364;2022-11-15T01:57:13;11.67;;;10.47;;
15406;SDS011;7802;51.568;6.364;2022-11-15T02:00:19;13.43;;;10.73;;
15406;SDS011;7802;51.568;6.364;2022-11-15T02:03:26;12.13;;;10.83;;
15406;SDS011;7802;51.568;6.364;2022-11-15T02:06:38;12.23;;;10.30;;
15406;SDS011;7802;51.568;6.364;2022-11-15T02:09:45;12.23;;;10.53;;
15406;SDS011;7802;51.568;6.364;2022-11-15T02:12:51;11.83;;;10.63;;
15406;SDS011;7802;51.568;6.364;2022-11-15T02:15:59;13.13;;;10.07;;
15406;SDS011;7802;51.568;6.364;2022-11-15T02:19:34;11.70;;;10.00;;
15406;SDS011;7802;51.568;6.364;2022-11-15T02:23:13;14.63;;;10.73;;
15406;SDS011;7802;51.568;6.364;2022-11-15T02:30:24;14.60;;;10.90;;
15406;SDS011;7802;51.568;6.364;2022-11-15T02:33:40;13.17;;;10.13;;
15406;SDS011;7802;51.568;6.364;2022-11-15T02:36:54;11.37;;;10.13;;
15406;SDS011;7802;51.568;6.364;2022-11-15T02:40:07;12.37;;;10.43;;
15406;SDS011;7802;51.568;6.364;2022-11-15T02:43:18;11.73;;;10.50;;
15406;SDS011;7802;51.568;6.364;2022-11-15T02:46:49;11.47;;;9.83;;
15406;SDS011;7802;51.568;6.364;2022-11-15T02:50:16;11.50;;;10.13;;
15406;SDS011;7802;51.568;6.364;2022-11-15T02:53:25;13.87;;;10.63;;
15406;SDS011;7802;51.568;6.364;2022-11-15T02:56:30;11.80;;;10.37;;
15406;SDS011;7802;51.568;6.364;2022-11-15T03:03:11;12.80;;;10.23;;
15406;SDS011;7802;51.568;6.364;2022-11-15T03:06:30;11.90;;;10.30;;
15406;SDS011;7802;51.568;6.364;2022-11-15T03:09:42;13.70;;;10.60;;
15406;SDS011;7802;51.568;6.364;2022-11-15T03:12:55;11.57;;;10.33;;
15406;SDS011;7802;51.568;6.364;2022-11-15T03:16:04;12.77;;;10.13;;
15406;SDS011;7802;51.568;6.364;2022-11-15T03:19:16;12.80;;;10.17;;
15406;SDS011;7802;51.568;6.364;2022-11-15T03:22:27;12.10;;;10.27;;
15406;SDS011;7802;51.568;6.364;2022-11-15T03:25:40;11.23;;;9.57;;
15406;SDS011;7802;51.568;6.364;2022-11-15T03:28:50;14.43;;;9.83;;
15406;SDS011;7802;51.568;6.364;2022-11-15T03:32:00;12.13;;;9.63;;
15406;SDS011;7802;51.568;6.364;2022-11-15T03:35:11;11.20;;;9.67;;
15406;SDS011;7802;51.568;6.364;2022-11-15T03:38:19;13.83;;;9.90;;
15406;SDS011;7802;51.568;6.364;2022-11-15T03:41:30;10.97;;;9.57;;
15406;SDS011;7802;51.568;6.364;2022-11-15T03:44:45;11.27;;;9.43;;
15406;SDS011;7802;51.568;6.364;2022-11-15T03:47:58;11.07;;;9.87;;
15406;SDS011;7802;51.568;6.364;2022-11-15T03:51:07;12.57;;;9.77;;
15406;SDS011;7802;51.568;6.364;2022-11-15T03:54:13;11.03;;;9.83;;
15406;SDS011;7802;51.568;6.364;2022-11-15T03:57:18;13.23;;;10.60;;
15406;SDS011;7802;51.568;6.364;2022-11-15T04:00:24;12.27;;;10.10;;
15406;SDS011;7802;51.568;6.364;2022-11-15T04:03:29;11.77;;;9.93;;
15406;SDS011;7802;51.568;6.364;2022-11-15T04:06:36;12.67;;;10.80;;
15406;SDS011;7802;51.568;6.364;2022-11-15T04:09:42;14.00;;;10.80;;
15406;SDS011;7802;51.568;6.364;2022-11-15T04:13:02;12.50;;;9.93;;
15406;SDS011;7802;51.568;6.364;2022-11-15T04:16:20;12.03;;;10.73;;
15406;SDS011;7802;51.568;6.364;2022-11-15T04:19:25;11.50;;;10.40;;
15406;SDS011;7802;51.568;6.364;2022-11-15T04:22:51;12.97;;;10.93;;
15406;SDS011;7802;51.568;6.364;2022-11-15T04:26:16;13.63;;;10.80;;
15406;SDS011;7802;51.568;6.364;2022-11-15T04:29:22;12.60;;;10.83;;
15406;SDS011;7802;51.568;6.364;2022-11-15T04:32:40;13.77;;;10.20;;
15406;SDS011;7802;51.568;6.364;2022-11-15T04:35:49;13.03;;;11.73;;
15406;SDS011;7802;51.568;6.364;2022-11-15T04:39:10;14.37;;;11.70;;
15406;SDS011;7802;51.568;6.364;2022-11-15T04:42:16;12.60;;;10.83;;
15406;SDS011;7802;51.568;6.364;2022-11-15T04:45:21;13.27;;;10.80;;
15406;SDS011;7802;51.568;6.364;2022-11-15T04:48:27;14.50;;;11.33;;
15406;SDS011;7802;51.568;6.364;2022-11-15T04:51:33;12.50;;;11.20;;
15406;SDS011;7802;51.568;6.364;2022-11-15T04:54:39;12.80;;;11.37;;
15406;SDS011;7802;51.568;6.364;2022-11-15T04:57:46;15.10;;;11.77;;
15406;SDS011;7802;51.568;6.364;2022-11-15T05:00:51;16.43;;;12.00;;
15406;SDS011;7802;51.568;6.364;2022-11-15T05:03:57;13.87;;;11.67;;
15406;SDS011;7802;51.568;6.364;2022-11-15T05:07:20;12.57;;;10.97;;
15406;SDS011;7802;51.568;6.364;2022-11-15T05:10:27;12.73;;;11.30;;
15406;SDS011;7802;51.568;6.364;2022-11-15T05:13:33;12.63;;;11.33;;
15406;SDS011;7802;51.568;6.364;2022-11-15T05:16:39;12.50;;;11.27;;
15406;SDS011;7802;51.568;6.364;2022-11-15T05:19:44;14.27;;;11.00;;
15406;SDS011;7802;51.568;6.364;2022-11-15T05:22:49;12.47;;;11.10;;
15406;SDS011;7802;51.568;6.364;2022-11-15T05:25:58;12.70;;;11.27;;
15406;SDS011;7802;51.568;6.364;2022-11-15T05:29:10;16.70;;;11.33;;
15406;SDS011;7802;51.568;6.364;2022-11-15T05:32:16;11.73;;;10.63;;
15406;SDS011;7802;51.568;6.364;2022-11-15T05:35:29;14.97;;;11.70;;
15406;SDS011;7802;51.568;6.364;2022-11-15T05:38:36;13.60;;;11.60;;
15406;SDS011;7802;51.568;6.364;2022-11-15T05:41:43;14.97;;;11.40;;
15406;SDS011;7802;51.568;6.364;2022-11-15T05:44:52;14.37;;;11.33;;
15406;SDS011;7802;51.568;6.364;2022-11-15T05:47:58;11.70;;;10.50;;
15406;SDS011;7802;51.568;6.364;2022-11-15T05:51:05;12.27;;;11.00;;
15406;SDS011;7802;51.568;6.364;2022-11-15T05:54:11;12.30;;;11.00;;
15406;SDS011;7802;51.568;6.364;2022-11-15T05:57:18;12.60;;;11.30;;
15406;SDS011;7802;51.568;6.364;2022-11-15T06:00:27;12.17;;;10.83;;
15406;SDS011;7802;51.568;6.364;2022-11-15T06:03:33;14.07;;;11.13;;
15406;SDS011;7802;51.568;6.364;2022-11-15T06:06:39;13.70;;;11.10;;
15406;SDS011;7802;51.568;6.364;2022-11-15T06:09:44;12.53;;;10.80;;
15406;SDS011;7802;51.568;6.364;2022-11-15T06:12:56;13.07;;;10.80;;
15406;SDS011;7802;51.568;6.364;2022-11-15T06:16:02;11.40;;;10.20;;
15406;SDS011;7802;51.568;6.364;2022-11-15T06:19:08;11.40;;;10.20;;
15406;SDS011;7802;51.568;6.364;2022-11-15T06:22:13;11.60;;;10.40;;
15406;SDS011;7802;51.568;6.364;2022-11-15T06:25:19;11.57;;;10.20;;
15406;SDS011;7802;51.568;6.364;2022-11-15T06:28:28;12.93;;;9.93;;
15406;SDS011;7802;51.568;6.364;2022-11-15T06:31:34;10.73;;;9.63;;
15406;SDS011;7802;51.568;6.364;2022-11-15T06:34:50;13.13;;;10.17;;
15406;SDS011;7802;51.568;6.364;2022-11-15T06:37:56;10.10;;;9.10;;
15406;SDS011;7802;51.568;6.364;2022-11-15T06:41:07;11.37;;;10.07;;
15406;SDS011;7802;51.568;6.364;2022-11-15T06:44:14;12.97;;;9.80;;
15406;SDS011;7802;51.568;6.364;2022-11-15T06:47:20;11.30;;;9.63;;
15406;SDS011;7802;51.568;6.364;2022-11-15T06:50:26;10.73;;;9.07;;
15406;SDS011;7802;51.568;6.364;2022-11-15T06:53:31;10.10;;;9.10;;
15406;SDS011;7802;51.568;6.364;2022-11-15T06:56:37;9.90;;;8.90;;
15406;SDS011;7802;51.568;6.364;2022-11-15T06:59:43;8.90;;;8.00;;
15406;SDS011;7802;51.568;6.364;2022-11-15T07:02:49;10.57;;;8.50;;
15406;SDS011;7802;51.568;6.364;2022-11-15T07:05:55;9.00;;;8.10;;
15406;SDS011;7802;51.568;6.364;2022-11-15T07:09:09;9.43;;;8.20;;
15406;SDS011;7802;51.568;6.364;2022-11-15T07:12:15;7.90;;;7.10;;
15406;SDS011;7802;51.568;6.364;2022-11-15T07:15:21;10.33;;;7.70;;
15406;SDS011;7802;51.568;6.364;2022-11-15T07:18:28;7.73;;;6.60;;
15406;SDS011;7802;51.568;6.364;2022-11-15T07:21:34;7.63;;;6.83;;
15406;SDS011;7802;51.568;6.364;2022-11-15T07:24:41;7.23;;;6.53;;
15406;SDS011;7802;51.568;6.364;2022-11-15T07:27:53;7.63;;;6.53;;
15406;SDS011;7802;51.568;6.364;2022-11-15T07:31:02;7.43;;;6.73;;
15406;SDS011;7802;51.568;6.364;2022-11-15T07:34:07;7.50;;;6.17;;
15406;SDS011;7802;51.568;6.364;2022-11-15T07:37:14;7.87;;;6.83;;
15406;SDS011;7802;51.568;6.364;2022-11-15T07:40:21;8.00;;;6.90;;
15406;SDS011;7802;51.568;6.364;2022-11-15T07:43:27;8.00;;;5.97;;
15406;SDS011;7802;51.568;6.364;2022-11-15T07:46:35;7.57;;;6.23;;
15406;SDS011;7802;51.568;6.364;2022-11-15T07:49:40;9.30;;;5.67;;
15406;SDS011;7802;51.568;6.364;2022-11-15T07:52:46;5.77;;;5.27;;
15406;SDS011;7802;51.568;6.364;2022-11-15T07:55:51;5.83;;;4.40;;
15406;SDS011;7802;51.568;6.364;2022-11-15T07:58:58;4.60;;;3.83;;
15406;SDS011;7802;51.568;6.364;2022-11-15T08:02:04;4.47;;;4.03;;
15406;SDS011;7802;51.568;6.364;2022-11-15T08:05:09;5.70;;;4.60;;
15406;SDS011;7802;51.568;6.364;2022-11-15T08:08:15;6.43;;;3.93;;
15406;SDS011;7802;51.568;6.364;2022-11-15T08:11:21;6.83;;;4.43;;
15406;SDS011;7802;51.568;6.364;2022-11-15T08:14:26;5.00;;;4.50;;
15406;SDS011;7802;51.568;6.364;2022-11-15T08:17:32;4.23;;;3.83;;
15406;SDS011;7802;51.568;6.364;2022-11-15T08:20:38;7.27;;;4.10;;
15406;SDS011;7802;51.568;6.364;2022-11-15T08:23:44;4.70;;;3.90;;
15406;SDS011;7802;51.568;6.364;2022-11-15T08:26:49;6.03;;;3.83;;
15406;SDS011;7802;51.568;6.364;2022-11-15T08:29:54;4.90;;;3.93;;
15406;SDS011;7802;51.568;6.364;2022-11-15T08:33:04;4.10;;;3.70;;
15406;SDS011;7802;51.568;6.364;2022-11-15T08:36:11;4.40;;;3.13;;
15406;SDS011;7802;51.568;6.364;2022-11-15T08:39:18;3.90;;;3.60;;
15406;SDS011;7802;51.568;6.364;2022-11-15T08:42:23;4.20;;;3.20;;
15406;SDS011;7802;51.568;6.364;2022-11-15T08:45:29;3.63;;;3.33;;
15406;SDS011;7802;51.568;6.364;2022-11-15T08:48:35;3.67;;;3.10;;
15406;SDS011;7802;51.568;6.364;2022-11-15T08:51:41;4.73;;;3.37;;
15406;SDS011;7802;51.568;6.364;2022-11-15T08:54:47;3.70;;;3.40;;
15406;SDS011;7802;51.568;6.364;2022-11-15T08:57:56;4.00;;;3.60;;
15406;SDS011;7802;51.568;6.364;2022-11-15T09:01:03;3.37;;;3.07;;
15406;SDS011;7802;51.568;6.364;2022-11-15T09:04:09;3.63;;;3.30;;
15406;SDS011;7802;51.568;6.364;2022-11-15T09:07:15;3.83;;;3.43;;
15406;SDS011;7802;51.568;6.364;2022-11-15T09:10:21;3.73;;;3.20;;
15406;SDS011;7802;51.568;6.364;2022-11-15T09:13:27;3.67;;;3.33;;
15406;SDS011;7802;51.568;6.364;2022-11-15T09:16:32;3.50;;;2.90;;
15406;SDS011;7802;51.568;6.364;2022-11-15T09:19:38;3.00;;;2.80;;
15406;SDS011;7802;51.568;6.364;2022-11-15T09:22:43;3.63;;;2.47;;
15406;SDS011;7802;51.568;6.364;2022-11-15T09:25:49;3.97;;;2.63;;
15406;SDS011;7802;51.568;6.364;2022-11-15T09:28:54;3.83;;;2.67;;
15406;SDS011;7802;51.568;6.364;2022-11-15T09:32:00;4.13;;;3.00;;
15406;SDS011;7802;51.568;6.364;2022-11-15T09:35:06;2.80;;;2.40;;
15406;SDS011;7802;51.568;6.364;2022-11-15T09:38:12;3.67;;;2.80;;
15406;SDS011;7802;51.568;6.364;2022-11-15T09:41:26;2.63;;;2.40;;
15406;SDS011;7802;51.568;6.364;2022-11-15T09:44:42;4.27;;;2.57;;
15406;SDS011;7802;51.568;6.364;2022-11-15T09:48:00;3.03;;;2.40;;
15406;SDS011;7802;51.568;6.364;2022-11-15T09:51:25;4.77;;;2.37;;
15406;SDS011;7802;51.568;6.364;2022-11-15T09:54:18;2.57;;;2.13;;
15406;SDS011;7802;51.568;6.364;2022-11-15T09:57:32;2.37;;;2.10;;
15406;SDS011;7802;51.568;6.364;2022-11-15T10:00:29;4.47;;;2.37;;
15406;SDS011;7802;51.568;6.364;2022-11-15T10:03:36;3.43;;;1.87;;
15406;SDS011;7802;51.568;6.364;2022-11-15T10:06:28;2.03;;;1.80;;
15406;SDS011;7802;51.568;6.364;2022-11-15T10:09:25;6.37;;;1.83;;
15406;SDS011;7802;51.568;6.364;2022-11-15T10:12:18;2.07;;;1.87;;
15406;SDS011;7802;51.568;6.364;2022-11-15T10:15:06;3.60;;;1.77;;
15406;SDS011;7802;51.568;6.364;2022-11-15T10:18:03;4.97;;;1.60;;
15406;SDS011;7802;51.568;6.364;2022-11-15T10:20:55;1.93;;;1.57;;
15406;SDS011;7802;51.568;6.364;2022-11-15T10:23:45;3.43;;;1.60;;
15406;SDS011;7802;51.568;6.364;2022-11-15T10:26:32;3.20;;;1.43;;
15406;SDS011;7802;51.568;6.364;2022-11-15T10:29:19;4.03;;;1.50;;
15406;SDS011;7802;51.568;6.364;2022-11-15T10:32:13;1.60;;;1.40;;
15406;SDS011;7802;51.568;6.364;2022-11-15T10:35:08;1.50;;;1.40;;
15406;SDS011;7802;51.568;6.364;2022-11-15T10:38:07;1.20;;;1.20;;
15406;SDS011;7802;51.568;6.364;2022-11-15T10:40:57;2.37;;;1.17;;
15406;SDS011;7802;51.568;6.364;2022-11-15T10:44:01;2.57;;;1.40;;
15406;SDS011;7802;51.568;6.364;2022-11-15T10:47:05;3.97;;;1.63;;
15406;SDS011;7802;51.568;6.364;2022-11-15T10:50:26;1.97;;;1.30;;
15406;SDS011;7802;51.568;6.364;2022-11-15T10:53:37;1.70;;;1.30;;
15406;SDS011;7802;51.568;6.364;2022-11-15T10:56:30;1.40;;;1.30;;
15406;SDS011;7802;51.568;6.364;2022-11-15T10:59:20;4.23;;;1.50;;
15406;SDS011;7802;51.568;6.364;2022-11-15T11:02:26;2.77;;;1.20;;
15406;SDS011;7802;51.568;6.364;2022-11-15T11:05:25;1.63;;;1.23;;
15406;SDS011;7802;51.568;6.364;2022-11-15T11:08:20;2.90;;;1.30;;
15406;SDS011;7802;51.568;6.364;2022-11-15T11:11:09;3.10;;;1.50;;
15406;SDS011;7802;51.568;6.364;2022-11-15T11:13:59;1.30;;;1.20;;
15406;SDS011;7802;51.568;6.364;2022-11-15T11:17:01;1.70;;;1.50;;
15406;SDS011;7802;51.568;6.364;2022-11-15T11:19:56;3.33;;;1.50;;
15406;SDS011;7802;51.568;6.364;2022-11-15T11:22:56;2.30;;;1.50;;
15406;SDS011;7802;51.568;6.364;2022-11-15T11:25:51;2.37;;;1.67;;
15406;SDS011;7802;51.568;6.364;2022-11-15T11:28:53;3.47;;;1.87;;
15406;SDS011;7802;51.568;6.364;2022-11-15T11:31:49;3.80;;;1.90;;
15406;SDS011;7802;51.568;6.364;2022-11-15T11:34:45;2.03;;;1.60;;
15406;SDS011;7802;51.568;6.364;2022-11-15T11:37:44;3.77;;;2.50;;
15406;SDS011;7802;51.568;6.364;2022-11-15T11:40:43;2.03;;;1.83;;
15406;SDS011;7802;51.568;6.364;2022-11-15T11:43:39;3.87;;;2.40;;
15406;SDS011;7802;51.568;6.364;2022-11-15T11:46:42;2.40;;;2.07;;
15406;SDS011;7802;51.568;6.364;2022-11-15T11:49:41;2.07;;;1.90;;
15406;SDS011;7802;51.568;6.364;2022-11-15T11:52:33;3.63;;;2.17;;
15406;SDS011;7802;51.568;6.364;2022-11-15T11:55:26;1.90;;;1.70;;
15406;SDS011;7802;51.568;6.364;2022-11-15T11:58:17;1.73;;;1.50;;
15406;SDS011;7802;51.568;6.364;2022-11-15T12:01:10;3.17;;;1.80;;
15406;SDS011;7802;51.568;6.364;2022-11-15T12:04:03;3.10;;;1.60;;
15406;SDS011;7802;51.568;6.364;2022-11-15T12:06:56;5.23;;;1.60;;
15406;SDS011;7802;51.568;6.364;2022-11-15T12:09:47;2.40;;;1.27;;
15406;SDS011;7802;51.568;6.364;2022-11-15T12:12:43;1.37;;;1.27;;
15406;SDS011;7802;51.568;6.364;2022-11-15T12:15:40;3.40;;;1.10;;
15406;SDS011;7802;51.568;6.364;2022-11-15T12:18:31;2.60;;;1.30;;
15406;SDS011;7802;51.568;6.364;2022-11-15T12:21:21;1.70;;;1.20;;
15406;SDS011;7802;51.568;6.364;2022-11-15T12:24:17;2.47;;;1.33;;
15406;SDS011;7802;51.568;6.364;2022-11-15T12:27:13;2.33;;;1.10;;
15406;SDS011;7802;51.568;6.364;2022-11-15T12:30:11;1.53;;;1.27;;
15406;SDS011;7802;51.568;6.364;2022-11-15T12:33:00;3.00;;;1.23;;
15406;SDS011;7802;51.568;6.364;2022-11-15T12:35:56;1.60;;;1.10;;
15406;SDS011;7802;51.568;6.364;2022-11-15T12:38:53;4.10;;;1.40;;
15406;SDS011;7802;51.568;6.364;2022-11-15T12:41:42;1.40;;;1.30;;
15406;SDS011;7802;51.568;6.364;2022-11-15T12:47:45;1.70;;;1.20;;
15406;SDS011;7802;51.568;6.364;2022-11-15T12:50:52;14.07;;;2.50;;
15406;SDS011;7802;51.568;6.364;2022-11-15T12:53:40;30.07;;;4.57;;
15406;SDS011;7802;51.568;6.364;2022-11-15T12:56:27;7.70;;;2.07;;
15406;SDS011;7802;51.568;6.364;2022-11-15T12:59:38;1.47;;;0.97;;
15406;SDS011;7802;51.568;6.364;2022-11-15T13:02:35;1.50;;;1.17;;
15406;SDS011;7802;51.568;6.364;2022-11-15T13:08:48;1.30;;;0.97;;
15406;SDS011;7802;51.568;6.364;2022-11-15T13:11:47;2.60;;;1.00;;
15406;SDS011;7802;51.568;6.364;2022-11-15T13:14:48;0.90;;;0.90;;
15406;SDS011;7802;51.568;6.364;2022-11-15T13:17:36;3.70;;;1.03;;
15406;SDS011;7802;51.568;6.364;2022-11-15T13:20:26;1.57;;;1.13;;
15406;SDS011;7802;51.568;6.364;2022-11-15T13:23:14;5.27;;;0.93;;
15406;SDS011;7802;51.568;6.364;2022-11-15T13:26:06;0.97;;;0.80;;
15406;SDS011;7802;51.568;6.364;2022-11-15T13:28:57;1.30;;;1.00;;
15406;SDS011;7802;51.568;6.364;2022-11-15T13:31:47;1.57;;;1.00;;
15406;SDS011;7802;51.568;6.364;2022-11-15T13:34:34;1.27;;;0.90;;
15406;SDS011;7802;51.568;6.364;2022-11-15T13:37:37;2.60;;;1.10;;
15406;SDS011;7802;51.568;6.364;2022-11-15T13:40:26;5.03;;;1.10;;
15406;SDS011;7802;51.568;6.364;2022-11-15T13:43:26;2.27;;;1.60;;
15406;SDS011;7802;51.568;6.364;2022-11-15T13:46:16;2.97;;;1.37;;
15406;SDS011;7802;51.568;6.364;2022-11-15T13:49:05;2.47;;;1.20;;
15406;SDS011;7802;51.568;6.364;2022-11-15T13:51:56;2.67;;;1.20;;
15406;SDS011;7802;51.568;6.364;2022-11-15T13:54:44;1.57;;;1.10;;
15406;SDS011;7802;51.568;6.364;2022-11-15T13:57:36;3.03;;;1.30;;
15406;SDS011;7802;51.568;6.364;2022-11-15T14:00:33;1.20;;;1.10;;
15406;SDS011;7802;51.568;6.364;2022-11-15T14:03:24;2.73;;;1.53;;
15406;SDS011;7802;51.568;6.364;2022-11-15T14:06:14;2.20;;;1.30;;
15406;SDS011;7802;51.568;6.364;2022-11-15T14:09:04;6.23;;;1.43;;
15406;SDS011;7802;51.568;6.364;2022-11-15T14:12:24;3.77;;;1.33;;
15406;SDS011;7802;51.568;6.364;2022-11-15T14:15:24;3.97;;;1.47;;
15406;SDS011;7802;51.568;6.364;2022-11-15T14:21:34;1.93;;;1.30;;
15406;SDS011;7802;51.568;6.364;2022-11-15T14:24:21;2.53;;;1.37;;
15406;SDS011;7802;51.568;6.364;2022-11-15T14:27:16;2.40;;;1.30;;
15406;SDS011;7802;51.568;6.364;2022-11-15T14:30:11;2.20;;;1.57;;
15406;SDS011;7802;51.568;6.364;2022-11-15T14:32:59;2.30;;;1.60;;
15406;SDS011;7802;51.568;6.364;2022-11-15T14:35:46;3.20;;;1.67;;
15406;SDS011;7802;51.568;6.364;2022-11-15T14:38:34;2.17;;;1.70;;
15406;SDS011;7802;51.568;6.364;2022-11-15T14:41:23;2.77;;;1.37;;
15406;SDS011;7802;51.568;6.364;2022-11-15T14:44:12;3.43;;;1.33;;
15406;SDS011;7802;51.568;6.364;2022-11-15T14:47:04;2.80;;;1.37;;
15406;SDS011;7802;51.568;6.364;2022-11-15T14:49:51;2.50;;;1.40;;
15406;SDS011;7802;51.568;6.364;2022-11-15T14:52:37;2.77;;;1.40;;
15406;SDS011;7802;51.568;6.364;2022-11-15T14:55:26;2.03;;;1.50;;
15406;SDS011;7802;51.568;6.364;2022-11-15T14:58:14;3.77;;;1.60;;
15406;SDS011;7802;51.568;6.364;2022-11-15T15:01:01;2.00;;;1.53;;
15406;SDS011;7802;51.568;6.364;2022-11-15T15:03:49;3.63;;;1.63;;
15406;SDS011;7802;51.568;6.364;2022-11-15T15:06:37;1.97;;;1.43;;
15406;SDS011;7802;51.568;6.364;2022-11-15T15:09:24;1.93;;;1.43;;
15406;SDS011;7802;51.568;6.364;2022-11-15T15:12:16;3.63;;;1.50;;
15406;SDS011;7802;51.568;6.364;2022-11-15T15:15:04;3.77;;;1.40;;
15406;SDS011;7802;51.568;6.364;2022-11-15T19:59:46;5.13;;;3.53;;
15406;SDS011;7802;51.568;6.364;2022-11-15T20:02:36;3.63;;;3.33;;
15406;SDS011;7802;51.568;6.364;2022-11-15T20:05:23;4.00;;;3.47;;
15406;SDS011;7802;51.568;6.364;2022-11-15T20:08:10;4.10;;;3.80;;
15406;SDS011;7802;51.568;6.364;2022-11-15T20:10:57;5.33;;;4.00;;
15406;SDS011;7802;51.568;6.364;2022-11-15T20:13:45;4.00;;;3.67;;
15406;SDS011;7802;51.568;6.364;2022-11-15T20:16:32;4.67;;;3.93;;
15406;SDS011;7802;51.568;6.364;2022-11-15T20:19:19;4.17;;;3.77;;
15406;SDS011;7802;51.568;6.364;2022-11-15T20:22:07;4.23;;;3.83;;
15406;SDS011;7802;51.568;6.364;2022-11-15T20:24:55;4.63;;;3.73;;
15406;SDS011;7802;51.568;6.364;2022-11-15T20:27:42;5.70;;;4.27;;
15406;SDS011;7802;51.568;6.364;2022-11-15T20:30:29;7.67;;;4.83;;
15406;SDS011;7802;51.568;6.364;2022-11-15T20:33:16;4.73;;;4.27;;
15406;SDS011;7802;51.568;6.364;2022-11-15T20:36:03;5.57;;;4.47;;
15406;SDS011;7802;51.568;6.364;2022-11-15T20:38:53;5.57;;;4.73;;
15406;SDS011;7802;51.568;6.364;2022-11-15T20:41:41;5.70;;;4.57;;
15406;SDS011;7802;51.568;6.364;2022-11-15T20:44:28;6.23;;;4.43;;
15406;SDS011;7802;51.568;6.364;2022-11-15T20:47:15;5.20;;;4.70;;
15406;SDS011;7802;51.568;6.364;2022-11-15T20:50:03;5.23;;;4.73;;
15406;SDS011;7802;51.568;6.364;2022-11-15T20:53:11;7.07;;;4.83;;
15406;SDS011;7802;51.568;6.364;2022-11-15T20:56:04;5.20;;;4.47;;
15406;SDS011;7802;51.568;6.364;2022-11-15T20:58:52;5.77;;;5.27;;
15406;SDS011;7802;51.568;6.364;2022-11-15T21:01:41;5.63;;;5.13;;
15406;SDS011;7802;51.568;6.364;2022-11-15T21:04:28;6.07;;;4.50;;
15406;SDS011;7802;51.568;6.364;2022-11-15T21:07:15;6.17;;;5.23;;
15406;SDS011;7802;51.568;6.364;2022-11-15T21:10:03;5.23;;;4.80;;
15406;SDS011;7802;51.568;6.364;2022-11-15T21:13:08;6.40;;;5.07;;
15406;SDS011;7802;51.568;6.364;2022-11-15T21:15:55;5.70;;;5.20;;
15406;SDS011;7802;51.568;6.364;2022-11-15T21:18:42;5.60;;;5.10;;
15406;SDS011;7802;51.568;6.364;2022-11-15T21:21:29;5.20;;;4.80;;
15406;SDS011;7802;51.568;6.364;2022-11-15T21:24:17;8.50;;;5.83;;
15406;SDS011;7802;51.568;6.364;2022-11-15T21:27:05;5.30;;;4.80;;
15406;SDS011;7802;51.568;6.364;2022-11-15T21:29:52;6.00;;;5.40;;
15406;SDS011;7802;51.568;6.364;2022-11-15T21:32:39;6.00;;;5.50;;
15406;SDS011;7802;51.568;6.364;2022-11-15T21:35:26;6.43;;;5.80;;
15406;SDS011;7802;51.568;6.364;2022-11-15T21:38:13;6.17;;;5.67;;
15406;SDS011;7802;51.568;6.364;2022-11-15T21:41:02;6.60;;;6.00;;
15406;SDS011;7802;51.568;6.364;2022-11-15T21:43:49;5.63;;;5.13;;
15406;SDS011;7802;51.568;6.364;2022-11-15T21:46:36;6.43;;;5.83;;
15406;SDS011;7802;51.568;6.364;2022-11-15T21:49:23;6.83;;;6.20;;
15406;SDS011;7802;51.568;6.364;2022-11-15T21:52:09;5.90;;;5.40;;
15406;SDS011;7802;51.568;6.364;2022-11-15T21:54:56;6.77;;;6.10;;
15406;SDS011;7802;51.568;6.364;2022-11-15T21:57:44;6.80;;;6.20;;
15406;SDS011;7802;51.568;6.364;2022-11-15T22:00:31;6.73;;;6.13;;
15406;SDS011;7802;51.568;6.364;2022-11-15T22:03:36;6.77;;;5.97;;
15406;SDS011;7802;51.568;6.364;2022-11-15T22:06:23;6.63;;;6.03;;
15406;SDS011;7802;51.568;6.364;2022-11-15T22:09:10;7.07;;;6.47;;
15406;SDS011;7802;51.568;6.364;2022-11-15T22:11:57;7.07;;;6.40;;
15406;SDS011;7802;51.568;6.364;2022-11-15T22:14:45;7.20;;;6.50;;
15406;SDS011;7802;51.568;6.364;2022-11-15T22:17:32;7.50;;;6.70;;
15406;SDS011;7802;51.568;6.364;2022-11-15T22:20:34;6.90;;;6.30;;
15406;SDS011;7802;51.568;6.364;2022-11-15T22:23:31;7.47;;;6.47;;
15406;SDS011;7802;51.568;6.364;2022-11-15T22:26:19;7.80;;;7.07;;
15406;SDS011;7802;51.568;6.364;2022-11-15T22:29:09;7.93;;;6.70;;
15406;SDS011;7802;51.568;6.364;2022-11-15T22:31:57;8.77;;;7.83;;
15406;SDS011;7802;51.568;6.364;2022-11-15T22:34:44;8.03;;;7.17;;
15406;SDS011;7802;51.568;6.364;2022-11-15T22:37:31;8.77;;;7.27;;
15406;SDS011;7802;51.568;6.364;2022-11-15T22:40:18;7.43;;;6.77;;
15406;SDS011;7802;51.568;6.364;2022-11-15T22:43:05;8.57;;;6.90;;
15406;SDS011;7802;51.568;6.364;2022-11-15T22:45:53;8.27;;;7.23;;
15406;SDS011;7802;51.568;6.364;2022-11-15T22:48:41;7.83;;;7.00;;
15406;SDS011;7802;51.568;6.364;2022-11-15T22:51:28;9.27;;;8.33;;
15406;SDS011;7802;51.568;6.364;2022-11-15T22:54:15;8.70;;;7.80;;
15406;SDS011;7802;51.568;6.364;2022-11-15T22:57:03;8.20;;;7.47;;
15406;SDS011;7802;51.568;6.364;2022-11-15T22:59:50;7.77;;;6.83;;
15406;SDS011;7802;51.568;6.364;2022-11-15T23:02:37;10.47;;;8.20;;
15406;SDS011;7802;51.568;6.364;2022-11-15T23:05:25;8.40;;;7.70;;
15406;SDS011;7802;51.568;6.364;2022-11-15T23:08:12;10.57;;;9.57;;
15406;SDS011;7802;51.568;6.364;2022-11-15T23:10:59;11.33;;;10.13;;
15406;SDS011;7802;51.568;6.364;2022-11-15T23:14:05;10.80;;;9.63;;